sensor_id;sensor_type;location;lat;lon;timestamp;temperature;humidity
9998;DHT22;5038;53.064;8.624;2023-12-20T00:00:24;6.60;99.90
9998;DHT22;5038;53.064;8.624;2023-12-20T00:02:52;6.60;99.90
9998;DHT22;5038;53.064;8.624;2023-12-20T00:05:21;6.50;99.90
9998;DHT22;5038;53.064;8.624;2023-12-20T00:07:49;6.50;99.90
9998;DHT22;5038;53.064;8.624;2023-12-20T00:10:19;6.50;99.90
9998;DHT22;5038;53.064;8.624;2023-12-20T00:12:47;6.50;99.90
9998;DHT22;5038;53.064;8.624;2023-12-20T00:15:15;6.50;99.90
9998;DHT22;5038;53.064;8.624;2023-12-20T00:17:43;6.40;99.90
9998;DHT22;5038;53.064;8.624;2023-12-20T00:20:12;6.40;99.90
9998;DHT22;5038;53.064;8.624;2023-12-20T00:22:41;6.40;99.90
9998;DHT22;5038;53.064;8.624;2023-12-20T00:25:09;6.30;99.90
9998;DHT22;5038;53.064;8.624;2023-12-20T00:27:39;6.30;99.90
9998;DHT22;5038;53.064;8.624;2023-12-20T00:30:08;6.30;99.90
9998;DHT22;5038;53.064;8.624;2023-12-20T00:32:37;6.30;99.90
9998;DHT22;5038;53.064;8.624;2023-12-20T00:35:06;6.30;99.90
9998;DHT22;5038;53.064;8.624;2023-12-20T00:37:34;6.30;99.90
9998;DHT22;5038;53.064;8.624;2023-12-20T00:40:03;6.20;99.90
9998;DHT22;5038;53.064;8.624;2023-12-20T00:42:32;6.20;99.90
9998;DHT22;5038;53.064;8.624;2023-12-20T00:45:02;6.20;99.90
9998;DHT22;5038;53.064;8.624;2023-12-20T00:47:31;6.20;99.90
9998;DHT22;5038;53.064;8.624;2023-12-20T00:50:00;6.20;99.90
9998;DHT22;5038;53.064;8.624;2023-12-20T00:52:28;6.20;99.90
9998;DHT22;5038;53.064;8.624;2023-12-20T00:54:56;6.20;99.90
9998;DHT22;5038;53.064;8.624;2023-12-20T00:57:24;6.10;99.90
9998;DHT22;5038;53.064;8.624;2023-12-20T00:59:53;6.10;99.90
9998;DHT22;5038;53.064;8.624;2023-12-20T01:02:22;6.10;99.90
9998;DHT22;5038;53.064;8.624;2023-12-20T01:04:50;6.10;99.90
9998;DHT22;5038;53.064;8.624;2023-12-20T01:07:19;6.10;99.90
9998;DHT22;5038;53.064;8.624;2023-12-20T01:09:48;6.10;99.90
9998;DHT22;5038;53.064;8.624;2023-12-20T01:12:16;6.10;99.90
9998;DHT22;5038;53.064;8.624;2023-12-20T01:14:44;6.10;99.90
9998;DHT22;5038;53.064;8.624;2023-12-20T01:17:12;6.10;99.90
9998;DHT22;5038;53.064;8.624;2023-12-20T01:19:44;6.10;99.90
9998;DHT22;5038;53.064;8.624;2023-12-20T01:22:12;6.10;99.90
9998;DHT22;5038;53.064;8.624;2023-12-20T01:24:40;6.10;99.90
9998;DHT22;5038;53.064;8.624;2023-12-20T01:27:09;6.10;99.90
9998;DHT22;5038;53.064;8.624;2023-12-20T01:29:37;6.10;99.90
9998;DHT22;5038;53.064;8.624;2023-12-20T01:32:06;6.10;99.90
9998;DHT22;5038;53.064;8.624;2023-12-20T01:34:34;6.10;99.90
9998;DHT22;5038;53.064;8.624;2023-12-20T01:37:04;6.10;99.90
9998;DHT22;5038;53.064;8.624;2023-12-20T01:39:33;6.10;99.90
9998;DHT22;5038;53.064;8.624;2023-12-20T01:42:01;6.10;99.90
9998;DHT22;5038;53.064;8.624;2023-12-20T01:44:29;6.10;99.90
9998;DHT22;5038;53.064;8.624;2023-12-20T01:46:57;6.10;99.90
9998;DHT22;5038;53.064;8.624;2023-12-20T01:49:26;6.00;99.90
9998;DHT22;5038;53.064;8.624;2023-12-20T01:51:54;6.00;99.90
9998;DHT22;5038;53.064;8.624;2023-12-20T01:54:25;6.00;99.90
9998;DHT22;5038;53.064;8.624;2023-12-20T01:56:53;6.00;99.90
9998;DHT22;5038;53.064;8.624;2023-12-20T01:59:21;6.00;99.90
9998;DHT22;5038;53.064;8.624;2023-12-20T02:01:50;6.00;99.90
9998;DHT22;5038;53.064;8.624;2023-12-20T02:04:18;6.00;99.90
9998;DHT22;5038;53.064;8.624;2023-12-20T02:06:48;6.00;99.90
9998;DHT22;5038;53.064;8.624;2023-12-20T02:09:17;6.00;99.90
9998;DHT22;5038;53.064;8.624;2023-12-20T02:11:47;6.00;99.90
9998;DHT22;5038;53.064;8.624;2023-12-20T02:14:15;6.00;99.90
9998;DHT22;5038;53.064;8.624;2023-12-20T02:16:44;5.90;99.90
9998;DHT22;5038;53.064;8.624;2023-12-20T02:19:14;5.90;99.90
9998;DHT22;5038;53.064;8.624;2023-12-20T02:21:44;5.90;99.90
9998;DHT22;5038;53.064;8.624;2023-12-20T02:24:12;5.90;99.90
9998;DHT22;5038;53.064;8.624;2023-12-20T02:26:41;5.90;99.90
9998;DHT22;5038;53.064;8.624;2023-12-20T02:29:13;5.90;99.90
9998;DHT22;5038;53.064;8.624;2023-12-20T02:31:41;5.90;99.90
9998;DHT22;5038;53.064;8.624;2023-12-20T02:34:09;5.90;99.90
9998;DHT22;5038;53.064;8.624;2023-12-20T02:36:37;5.90;99.90
9998;DHT22;5038;53.064;8.624;2023-12-20T02:39:07;5.90;99.90
9998;DHT22;5038;53.064;8.624;2023-12-20T02:41:35;5.90;99.90
9998;DHT22;5038;53.064;8.624;2023-12-20T02:44:04;5.90;99.90
9998;DHT22;5038;53.064;8.624;2023-12-20T02:46:32;5.90;99.90
9998;DHT22;5038;53.064;8.624;2023-12-20T02:49:00;5.90;99.90
9998;DHT22;5038;53.064;8.624;2023-12-20T02:51:29;5.90;99.90
9998;DHT22;5038;53.064;8.624;2023-12-20T02:53:57;5.90;99.90
9998;DHT22;5038;53.064;8.624;2023-12-20T02:56:26;5.90;99.90
9998;DHT22;5038;53.064;8.624;2023-12-20T02:58:56;5.90;99.90
9998;DHT22;5038;53.064;8.624;2023-12-20T03:01:25;5.90;99.90
9998;DHT22;5038;53.064;8.624;2023-12-20T03:03:53;5.90;99.90
9998;DHT22;5038;53.064;8.624;2023-12-20T03:06:22;5.90;99.90
9998;DHT22;5038;53.064;8.624;2023-12-20T03:08:50;5.90;99.90
9998;DHT22;5038;53.064;8.624;2023-12-20T03:11:18;6.00;99.90
9998;DHT22;5038;53.064;8.624;2023-12-20T03:13:48;5.90;99.90
9998;DHT22;5038;53.064;8.624;2023-12-20T03:16:16;6.00;99.90
9998;DHT22;5038;53.064;8.624;2023-12-20T03:18:45;5.90;99.90
9998;DHT22;5038;53.064;8.624;2023-12-20T03:21:13;5.90;99.90
9998;DHT22;5038;53.064;8.624;2023-12-20T03:23:41;6.00;99.90
9998;DHT22;5038;53.064;8.624;2023-12-20T03:26:10;6.00;99.90
9998;DHT22;5038;53.064;8.624;2023-12-20T03:28:38;6.00;99.90
9998;DHT22;5038;53.064;8.624;2023-12-20T03:31:09;6.00;99.90
9998;DHT22;5038;53.064;8.624;2023-12-20T03:33:38;6.00;99.90
9998;DHT22;5038;53.064;8.624;2023-12-20T03:36:06;6.00;99.90
9998;DHT22;5038;53.064;8.624;2023-12-20T03:38:35;6.00;99.90
9998;DHT22;5038;53.064;8.624;2023-12-20T03:41:04;6.00;99.90
9998;DHT22;5038;53.064;8.624;2023-12-20T03:43:32;6.00;99.90
9998;DHT22;5038;53.064;8.624;2023-12-20T03:46:00;6.00;99.90
9998;DHT22;5038;53.064;8.624;2023-12-20T03:48:32;6.00;99.90
9998;DHT22;5038;53.064;8.624;2023-12-20T03:51:00;6.00;99.90
9998;DHT22;5038;53.064;8.624;2023-12-20T03:53:28;6.00;99.90
9998;DHT22;5038;53.064;8.624;2023-12-20T03:55:56;6.00;99.90
9998;DHT22;5038;53.064;8.624;2023-12-20T03:58:24;6.00;99.90
9998;DHT22;5038;53.064;8.624;2023-12-20T04:00:53;6.10;99.90
9998;DHT22;5038;53.064;8.624;2023-12-20T04:03:21;6.10;99.90
9998;DHT22;5038;53.064;8.624;2023-12-20T04:05:51;6.10;99.90
9998;DHT22;5038;53.064;8.624;2023-12-20T04:08:19;6.10;99.90
9998;DHT22;5038;53.064;8.624;2023-12-20T04:10:48;6.10;99.90
9998;DHT22;5038;53.064;8.624;2023-12-20T04:13:16;6.10;99.90
9998;DHT22;5038;53.064;8.624;2023-12-20T04:15:44;6.10;99.90
9998;DHT22;5038;53.064;8.624;2023-12-20T04:18:13;6.10;99.90
9998;DHT22;5038;53.064;8.624;2023-12-20T04:20:41;6.10;99.90
9998;DHT22;5038;53.064;8.624;2023-12-20T04:23:11;6.10;99.90
9998;DHT22;5038;53.064;8.624;2023-12-20T04:25:39;6.20;99.90
9998;DHT22;5038;53.064;8.624;2023-12-20T04:28:07;6.20;99.90
9998;DHT22;5038;53.064;8.624;2023-12-20T04:30:35;6.20;99.90
9998;DHT22;5038;53.064;8.624;2023-12-20T04:33:04;6.20;99.90
9998;DHT22;5038;53.064;8.624;2023-12-20T04:35:32;6.20;99.90
9998;DHT22;5038;53.064;8.624;2023-12-20T04:38:00;6.20;99.90
9998;DHT22;5038;53.064;8.624;2023-12-20T04:40:30;6.20;99.90
9998;DHT22;5038;53.064;8.624;2023-12-20T04:42:58;6.20;99.90
9998;DHT22;5038;53.064;8.624;2023-12-20T04:45:26;6.20;99.90
9998;DHT22;5038;53.064;8.624;2023-12-20T04:47:55;6.20;99.90
9998;DHT22;5038;53.064;8.624;2023-12-20T04:50:23;6.20;99.90
9998;DHT22;5038;53.064;8.624;2023-12-20T04:52:52;6.20;99.90
9998;DHT22;5038;53.064;8.624;2023-12-20T04:55:20;6.20;99.90
9998;DHT22;5038;53.064;8.624;2023-12-20T04:57:49;6.20;99.90
9998;DHT22;5038;53.064;8.624;2023-12-20T05:00:18;6.20;99.90
9998;DHT22;5038;53.064;8.624;2023-12-20T05:02:46;6.20;99.90
9998;DHT22;5038;53.064;8.624;2023-12-20T05:05:14;6.20;99.90
9998;DHT22;5038;53.064;8.624;2023-12-20T05:07:44;6.20;99.90
9998;DHT22;5038;53.064;8.624;2023-12-20T05:10:13;6.20;99.90
9998;DHT22;5038;53.064;8.624;2023-12-20T05:12:42;6.20;99.90
9998;DHT22;5038;53.064;8.624;2023-12-20T05:15:12;6.20;99.90
9998;DHT22;5038;53.064;8.624;2023-12-20T05:17:40;6.20;99.90
9998;DHT22;5038;53.064;8.624;2023-12-20T05:20:09;6.30;99.90
9998;DHT22;5038;53.064;8.624;2023-12-20T05:22:37;6.20;99.90
9998;DHT22;5038;53.064;8.624;2023-12-20T05:25:06;6.20;99.90
9998;DHT22;5038;53.064;8.624;2023-12-20T05:27:34;6.30;99.90
9998;DHT22;5038;53.064;8.624;2023-12-20T05:30:03;6.30;99.90
9998;DHT22;5038;53.064;8.624;2023-12-20T05:32:33;6.30;99.90
9998;DHT22;5038;53.064;8.624;2023-12-20T05:35:01;6.30;99.90
9998;DHT22;5038;53.064;8.624;2023-12-20T05:37:30;6.30;99.90
9998;DHT22;5038;53.064;8.624;2023-12-20T05:39:58;6.30;99.90
9998;DHT22;5038;53.064;8.624;2023-12-20T05:42:26;6.30;99.90
9998;DHT22;5038;53.064;8.624;2023-12-20T05:44:55;6.30;99.90
9998;DHT22;5038;53.064;8.624;2023-12-20T05:47:25;6.30;99.90
9998;DHT22;5038;53.064;8.624;2023-12-20T05:49:54;6.30;99.90
9998;DHT22;5038;53.064;8.624;2023-12-20T05:52:23;6.30;99.90
9998;DHT22;5038;53.064;8.624;2023-12-20T05:54:51;6.30;99.90
9998;DHT22;5038;53.064;8.624;2023-12-20T05:57:20;6.30;99.90
9998;DHT22;5038;53.064;8.624;2023-12-20T05:59:48;6.30;99.90
9998;DHT22;5038;53.064;8.624;2023-12-20T06:02:16;6.40;99.90
9998;DHT22;5038;53.064;8.624;2023-12-20T06:04:44;6.30;99.90
9998;DHT22;5038;53.064;8.624;2023-12-20T06:07:15;6.40;99.90
9998;DHT22;5038;53.064;8.624;2023-12-20T06:09:44;6.40;99.90
9998;DHT22;5038;53.064;8.624;2023-12-20T06:12:12;6.40;99.90
9998;DHT22;5038;53.064;8.624;2023-12-20T06:14:40;6.40;99.90
9998;DHT22;5038;53.064;8.624;2023-12-20T06:17:09;6.40;99.90
9998;DHT22;5038;53.064;8.624;2023-12-20T06:19:37;6.50;99.90
9998;DHT22;5038;53.064;8.624;2023-12-20T06:22:05;6.50;99.90
9998;DHT22;5038;53.064;8.624;2023-12-20T06:24:35;6.50;99.90
9998;DHT22;5038;53.064;8.624;2023-12-20T06:27:03;6.50;99.90
9998;DHT22;5038;53.064;8.624;2023-12-20T06:29:31;6.50;99.90
9998;DHT22;5038;53.064;8.624;2023-12-20T06:32:02;6.50;99.90
9998;DHT22;5038;53.064;8.624;2023-12-20T06:34:30;6.50;99.90
9998;DHT22;5038;53.064;8.624;2023-12-20T06:36:58;6.60;99.90
9998;DHT22;5038;53.064;8.624;2023-12-20T06:39:26;6.60;99.90
9998;DHT22;5038;53.064;8.624;2023-12-20T06:41:57;6.60;99.90
9998;DHT22;5038;53.064;8.624;2023-12-20T06:44:25;6.60;99.90
9998;DHT22;5038;53.064;8.624;2023-12-20T06:46:54;6.60;99.90
9998;DHT22;5038;53.064;8.624;2023-12-20T06:49:22;6.60;99.90
9998;DHT22;5038;53.064;8.624;2023-12-20T06:51:50;6.60;99.90
9998;DHT22;5038;53.064;8.624;2023-12-20T06:54:20;6.60;99.90
9998;DHT22;5038;53.064;8.624;2023-12-20T06:56:48;6.60;99.90
9998;DHT22;5038;53.064;8.624;2023-12-20T06:59:18;6.60;99.90
9998;DHT22;5038;53.064;8.624;2023-12-20T07:01:48;6.60;99.90
9998;DHT22;5038;53.064;8.624;2023-12-20T07:04:16;6.60;99.90
9998;DHT22;5038;53.064;8.624;2023-12-20T07:06:49;6.60;99.90
9998;DHT22;5038;53.064;8.624;2023-12-20T07:09:19;6.60;99.90
9998;DHT22;5038;53.064;8.624;2023-12-20T07:11:47;6.60;99.90
9998;DHT22;5038;53.064;8.624;2023-12-20T07:14:15;6.70;99.90
9998;DHT22;5038;53.064;8.624;2023-12-20T07:16:45;6.70;99.90
9998;DHT22;5038;53.064;8.624;2023-12-20T07:19:13;6.70;99.90
9998;DHT22;5038;53.064;8.624;2023-12-20T07:21:41;6.70;99.90
9998;DHT22;5038;53.064;8.624;2023-12-20T07:24:10;6.70;99.90
9998;DHT22;5038;53.064;8.624;2023-12-20T07:26:38;6.70;99.90
9998;DHT22;5038;53.064;8.624;2023-12-20T07:29:07;6.70;99.90
9998;DHT22;5038;53.064;8.624;2023-12-20T07:31:35;6.80;99.90
9998;DHT22;5038;53.064;8.624;2023-12-20T07:34:04;6.80;99.90
9998;DHT22;5038;53.064;8.624;2023-12-20T07:36:33;6.80;99.90
9998;DHT22;5038;53.064;8.624;2023-12-20T07:39:02;6.80;99.90
9998;DHT22;5038;53.064;8.624;2023-12-20T07:41:30;6.80;99.90
9998;DHT22;5038;53.064;8.624;2023-12-20T07:43:58;6.80;99.90
9998;DHT22;5038;53.064;8.624;2023-12-20T07:46:26;6.80;99.90
9998;DHT22;5038;53.064;8.624;2023-12-20T07:48:55;6.80;99.90
9998;DHT22;5038;53.064;8.624;2023-12-20T07:51:24;6.80;99.90
9998;DHT22;5038;53.064;8.624;2023-12-20T07:53:53;6.80;99.90
9998;DHT22;5038;53.064;8.624;2023-12-20T07:56:21;6.90;99.90
9998;DHT22;5038;53.064;8.624;2023-12-20T07:58:49;6.90;99.90
9998;DHT22;5038;53.064;8.624;2023-12-20T08:01:20;6.90;99.90
9998;DHT22;5038;53.064;8.624;2023-12-20T08:03:49;6.90;99.90
9998;DHT22;5038;53.064;8.624;2023-12-20T08:06:18;6.90;99.90
9998;DHT22;5038;53.064;8.624;2023-12-20T08:08:48;6.90;99.90
9998;DHT22;5038;53.064;8.624;2023-12-20T08:11:28;7.00;99.90
9998;DHT22;5038;53.064;8.624;2023-12-20T08:13:57;7.00;99.90
9998;DHT22;5038;53.064;8.624;2023-12-20T08:16:25;7.00;99.90
9998;DHT22;5038;53.064;8.624;2023-12-20T08:18:54;7.00;99.90
9998;DHT22;5038;53.064;8.624;2023-12-20T08:21:22;7.00;99.90
9998;DHT22;5038;53.064;8.624;2023-12-20T08:23:52;7.10;99.90
9998;DHT22;5038;53.064;8.624;2023-12-20T08:26:21;7.10;99.90
9998;DHT22;5038;53.064;8.624;2023-12-20T08:28:51;7.10;99.90
9998;DHT22;5038;53.064;8.624;2023-12-20T08:31:19;7.10;99.90
9998;DHT22;5038;53.064;8.624;2023-12-20T08:33:48;7.10;99.90
9998;DHT22;5038;53.064;8.624;2023-12-20T08:36:18;7.10;99.90
9998;DHT22;5038;53.064;8.624;2023-12-20T08:38:48;7.10;99.90
9998;DHT22;5038;53.064;8.624;2023-12-20T08:41:18;7.10;99.90
9998;DHT22;5038;53.064;8.624;2023-12-20T08:43:47;7.10;99.90
9998;DHT22;5038;53.064;8.624;2023-12-20T08:46:15;7.10;99.90
9998;DHT22;5038;53.064;8.624;2023-12-20T08:48:44;7.10;99.90
9998;DHT22;5038;53.064;8.624;2023-12-20T08:51:13;7.10;99.90
9998;DHT22;5038;53.064;8.624;2023-12-20T08:53:41;7.20;99.90
9998;DHT22;5038;53.064;8.624;2023-12-20T08:56:12;7.20;99.90
9998;DHT22;5038;53.064;8.624;2023-12-20T08:58:41;7.20;99.90
9998;DHT22;5038;53.064;8.624;2023-12-20T09:01:10;7.20;99.90
9998;DHT22;5038;53.064;8.624;2023-12-20T09:03:38;7.20;99.90
9998;DHT22;5038;53.064;8.624;2023-12-20T09:06:07;7.20;99.90
9998;DHT22;5038;53.064;8.624;2023-12-20T09:08:35;7.20;99.90
9998;DHT22;5038;53.064;8.624;2023-12-20T09:11:03;7.20;99.90
9998;DHT22;5038;53.064;8.624;2023-12-20T09:13:32;7.20;99.90
9998;DHT22;5038;53.064;8.624;2023-12-20T09:16:03;7.20;99.90
9998;DHT22;5038;53.064;8.624;2023-12-20T09:18:31;7.20;99.90
9998;DHT22;5038;53.064;8.624;2023-12-20T09:21:00;7.20;99.90
9998;DHT22;5038;53.064;8.624;2023-12-20T09:23:29;7.20;99.90
9998;DHT22;5038;53.064;8.624;2023-12-20T09:25:57;7.20;99.90
9998;DHT22;5038;53.064;8.624;2023-12-20T09:28:25;7.20;99.90
9998;DHT22;5038;53.064;8.624;2023-12-20T09:30:54;7.20;99.90
9998;DHT22;5038;53.064;8.624;2023-12-20T09:33:23;7.20;99.90
9998;DHT22;5038;53.064;8.624;2023-12-20T09:35:52;7.20;99.90
9998;DHT22;5038;53.064;8.624;2023-12-20T09:38:21;7.30;99.90
9998;DHT22;5038;53.064;8.624;2023-12-20T09:40:49;7.30;99.90
9998;DHT22;5038;53.064;8.624;2023-12-20T09:43:19;7.30;99.90
9998;DHT22;5038;53.064;8.624;2023-12-20T09:45:48;7.30;99.90
9998;DHT22;5038;53.064;8.624;2023-12-20T09:48:18;7.30;99.90
9998;DHT22;5038;53.064;8.624;2023-12-20T09:50:49;7.10;99.90
9998;DHT22;5038;53.064;8.624;2023-12-20T09:53:20;6.90;99.90
9998;DHT22;5038;53.064;8.624;2023-12-20T09:55:52;6.70;99.90
9998;DHT22;5038;53.064;8.624;2023-12-20T09:58:20;6.60;99.90
9998;DHT22;5038;53.064;8.624;2023-12-20T10:00:50;6.40;99.90
9998;DHT22;5038;53.064;8.624;2023-12-20T10:03:23;6.30;99.90
9998;DHT22;5038;53.064;8.624;2023-12-20T10:05:55;6.30;99.90
9998;DHT22;5038;53.064;8.624;2023-12-20T10:08:25;6.20;99.90
9998;DHT22;5038;53.064;8.624;2023-12-20T10:10:53;6.20;99.90
9998;DHT22;5038;53.064;8.624;2023-12-20T10:13:22;6.20;99.90
9998;DHT22;5038;53.064;8.624;2023-12-20T10:15:51;6.10;99.90
9998;DHT22;5038;53.064;8.624;2023-12-20T10:18:20;6.10;99.90
9998;DHT22;5038;53.064;8.624;2023-12-20T10:21:04;6.10;99.90
9998;DHT22;5038;53.064;8.624;2023-12-20T10:23:33;6.00;99.90
9998;DHT22;5038;53.064;8.624;2023-12-20T10:26:02;6.00;99.90
9998;DHT22;5038;53.064;8.624;2023-12-20T10:28:33;6.00;99.90
9998;DHT22;5038;53.064;8.624;2023-12-20T10:31:02;6.00;99.90
9998;DHT22;5038;53.064;8.624;2023-12-20T10:33:31;6.00;99.90
9998;DHT22;5038;53.064;8.624;2023-12-20T10:36:00;5.90;99.90
9998;DHT22;5038;53.064;8.624;2023-12-20T10:38:31;5.90;99.90
9998;DHT22;5038;53.064;8.624;2023-12-20T10:41:01;5.90;99.90
9998;DHT22;5038;53.064;8.624;2023-12-20T10:43:33;6.00;99.90
9998;DHT22;5038;53.064;8.624;2023-12-20T10:46:03;6.00;99.90
9998;DHT22;5038;53.064;8.624;2023-12-20T10:48:32;6.00;99.90
9998;DHT22;5038;53.064;8.624;2023-12-20T10:51:01;6.00;99.90
9998;DHT22;5038;53.064;8.624;2023-12-20T10:53:31;6.00;99.90
9998;DHT22;5038;53.064;8.624;2023-12-20T10:56:00;6.00;99.90
9998;DHT22;5038;53.064;8.624;2023-12-20T10:58:32;6.00;99.90
9998;DHT22;5038;53.064;8.624;2023-12-20T11:01:01;6.00;99.90
9998;DHT22;5038;53.064;8.624;2023-12-20T11:03:34;6.00;99.90
9998;DHT22;5038;53.064;8.624;2023-12-20T11:06:08;6.00;99.90
9998;DHT22;5038;53.064;8.624;2023-12-20T11:08:44;6.10;99.90
9998;DHT22;5038;53.064;8.624;2023-12-20T11:11:22;6.10;99.90
9998;DHT22;5038;53.064;8.624;2023-12-20T11:13:57;6.10;99.90
9998;DHT22;5038;53.064;8.624;2023-12-20T11:16:27;6.20;99.90
9998;DHT22;5038;53.064;8.624;2023-12-20T11:19:11;6.20;99.90
9998;DHT22;5038;53.064;8.624;2023-12-20T11:21:41;6.30;99.90
9998;DHT22;5038;53.064;8.624;2023-12-20T11:24:11;6.30;99.90
9998;DHT22;5038;53.064;8.624;2023-12-20T11:26:46;6.30;99.90
9998;DHT22;5038;53.064;8.624;2023-12-20T11:29:35;6.30;99.90
9998;DHT22;5038;53.064;8.624;2023-12-20T11:32:33;6.40;99.90
9998;DHT22;5038;53.064;8.624;2023-12-20T11:35:17;6.40;99.90
9998;DHT22;5038;53.064;8.624;2023-12-20T11:37:46;6.40;99.90
9998;DHT22;5038;53.064;8.624;2023-12-20T11:40:17;6.50;99.90
9998;DHT22;5038;53.064;8.624;2023-12-20T11:42:48;6.50;99.90
9998;DHT22;5038;53.064;8.624;2023-12-20T11:45:19;6.60;99.90
9998;DHT22;5038;53.064;8.624;2023-12-20T11:47:51;6.60;99.90
9998;DHT22;5038;53.064;8.624;2023-12-20T11:50:22;6.60;99.90
9998;DHT22;5038;53.064;8.624;2023-12-20T11:52:52;6.60;99.90
9998;DHT22;5038;53.064;8.624;2023-12-20T11:55:21;6.70;99.90
9998;DHT22;5038;53.064;8.624;2023-12-20T11:57:51;6.70;99.90
9998;DHT22;5038;53.064;8.624;2023-12-20T12:00:19;6.70;99.90
9998;DHT22;5038;53.064;8.624;2023-12-20T12:02:59;6.70;99.90
9998;DHT22;5038;53.064;8.624;2023-12-20T12:05:31;6.70;99.90
9998;DHT22;5038;53.064;8.624;2023-12-20T12:08:00;6.70;99.90
9998;DHT22;5038;53.064;8.624;2023-12-20T12:10:29;6.70;99.90
9998;DHT22;5038;53.064;8.624;2023-12-20T12:12:57;6.80;99.90
9998;DHT22;5038;53.064;8.624;2023-12-20T12:15:25;6.80;99.90
9998;DHT22;5038;53.064;8.624;2023-12-20T12:17:54;6.80;99.90
9998;DHT22;5038;53.064;8.624;2023-12-20T12:20:24;6.90;99.90
9998;DHT22;5038;53.064;8.624;2023-12-20T12:23:00;6.90;99.90
9998;DHT22;5038;53.064;8.624;2023-12-20T12:25:29;6.90;99.90
9998;DHT22;5038;53.064;8.624;2023-12-20T12:27:59;7.00;99.90
9998;DHT22;5038;53.064;8.624;2023-12-20T12:30:28;7.00;99.90
9998;DHT22;5038;53.064;8.624;2023-12-20T12:33:05;7.00;99.90
9998;DHT22;5038;53.064;8.624;2023-12-20T12:35:34;7.00;99.90
9998;DHT22;5038;53.064;8.624;2023-12-20T12:38:03;7.00;99.90
9998;DHT22;5038;53.064;8.624;2023-12-20T12:40:34;7.00;99.90
9998;DHT22;5038;53.064;8.624;2023-12-20T12:43:04;7.00;99.90
9998;DHT22;5038;53.064;8.624;2023-12-20T12:45:33;7.10;99.90
9998;DHT22;5038;53.064;8.624;2023-12-20T12:48:02;7.10;99.90
9998;DHT22;5038;53.064;8.624;2023-12-20T12:50:30;7.10;99.90
9998;DHT22;5038;53.064;8.624;2023-12-20T12:53:00;7.10;99.90
9998;DHT22;5038;53.064;8.624;2023-12-20T12:55:29;7.10;99.90
9998;DHT22;5038;53.064;8.624;2023-12-20T12:57:58;7.10;99.90
9998;DHT22;5038;53.064;8.624;2023-12-20T13:00:26;7.20;99.90
9998;DHT22;5038;53.064;8.624;2023-12-20T13:02:54;7.10;99.90
9998;DHT22;5038;53.064;8.624;2023-12-20T13:05:22;7.10;99.90
9998;DHT22;5038;53.064;8.624;2023-12-20T13:07:51;7.10;99.90
9998;DHT22;5038;53.064;8.624;2023-12-20T13:10:21;7.10;99.90
9998;DHT22;5038;53.064;8.624;2023-12-20T13:12:49;7.00;99.90
9998;DHT22;5038;53.064;8.624;2023-12-20T13:15:18;7.00;99.90
9998;DHT22;5038;53.064;8.624;2023-12-20T13:17:46;7.00;99.90
9998;DHT22;5038;53.064;8.624;2023-12-20T13:20:16;7.00;99.90
9998;DHT22;5038;53.064;8.624;2023-12-20T13:22:44;7.00;99.90
9998;DHT22;5038;53.064;8.624;2023-12-20T13:25:12;7.00;99.90
9998;DHT22;5038;53.064;8.624;2023-12-20T13:27:42;6.90;99.90
9998;DHT22;5038;53.064;8.624;2023-12-20T13:30:12;6.90;99.90
9998;DHT22;5038;53.064;8.624;2023-12-20T13:32:40;6.90;99.90
9998;DHT22;5038;53.064;8.624;2023-12-20T13:35:09;6.90;99.90
9998;DHT22;5038;53.064;8.624;2023-12-20T13:37:38;6.90;99.90
9998;DHT22;5038;53.064;8.624;2023-12-20T13:40:10;6.90;99.90
9998;DHT22;5038;53.064;8.624;2023-12-20T13:42:39;6.90;99.90
9998;DHT22;5038;53.064;8.624;2023-12-20T13:45:09;6.90;99.90
9998;DHT22;5038;53.064;8.624;2023-12-20T13:47:37;6.90;99.90
9998;DHT22;5038;53.064;8.624;2023-12-20T13:50:06;6.90;99.90
9998;DHT22;5038;53.064;8.624;2023-12-20T13:52:35;6.90;99.90
9998;DHT22;5038;53.064;8.624;2023-12-20T13:55:06;6.90;99.90
9998;DHT22;5038;53.064;8.624;2023-12-20T13:57:35;6.90;99.90
9998;DHT22;5038;53.064;8.624;2023-12-20T14:00:22;6.90;99.90
9998;DHT22;5038;53.064;8.624;2023-12-20T14:02:50;6.90;99.90
9998;DHT22;5038;53.064;8.624;2023-12-20T14:05:18;6.90;99.90
9998;DHT22;5038;53.064;8.624;2023-12-20T14:07:52;6.90;99.90
9998;DHT22;5038;53.064;8.624;2023-12-20T14:10:21;6.90;99.90
9998;DHT22;5038;53.064;8.624;2023-12-20T14:12:49;6.90;99.90
9998;DHT22;5038;53.064;8.624;2023-12-20T14:15:17;6.90;99.90
9998;DHT22;5038;53.064;8.624;2023-12-20T14:17:47;6.90;99.90
9998;DHT22;5038;53.064;8.624;2023-12-20T14:20:16;6.90;99.90
9998;DHT22;5038;53.064;8.624;2023-12-20T14:22:45;6.80;99.90
9998;DHT22;5038;53.064;8.624;2023-12-20T14:25:14;6.80;99.90
9998;DHT22;5038;53.064;8.624;2023-12-20T14:27:42;6.80;99.90
9998;DHT22;5038;53.064;8.624;2023-12-20T14:30:13;6.80;99.90
9998;DHT22;5038;53.064;8.624;2023-12-20T14:32:42;6.80;99.90
9998;DHT22;5038;53.064;8.624;2023-12-20T14:35:12;6.80;99.90
9998;DHT22;5038;53.064;8.624;2023-12-20T14:37:40;6.80;99.90
9998;DHT22;5038;53.064;8.624;2023-12-20T14:40:10;6.80;99.90
9998;DHT22;5038;53.064;8.624;2023-12-20T14:42:43;6.80;99.90
9998;DHT22;5038;53.064;8.624;2023-12-20T14:45:11;6.80;99.90
9998;DHT22;5038;53.064;8.624;2023-12-20T14:47:41;6.80;99.90
9998;DHT22;5038;53.064;8.624;2023-12-20T14:50:09;6.80;99.90
9998;DHT22;5038;53.064;8.624;2023-12-20T14:52:40;6.80;99.90
9998;DHT22;5038;53.064;8.624;2023-12-20T14:55:08;6.80;99.90
9998;DHT22;5038;53.064;8.624;2023-12-20T14:57:36;6.80;99.90
9998;DHT22;5038;53.064;8.624;2023-12-20T15:00:06;6.80;99.90
9998;DHT22;5038;53.064;8.624;2023-12-20T15:02:35;6.80;99.90
9998;DHT22;5038;53.064;8.624;2023-12-20T15:05:04;6.80;99.90
9998;DHT22;5038;53.064;8.624;2023-12-20T15:07:32;6.80;99.90
9998;DHT22;5038;53.064;8.624;2023-12-20T15:10:02;6.80;99.90
9998;DHT22;5038;53.064;8.624;2023-12-20T15:12:30;6.80;99.90
9998;DHT22;5038;53.064;8.624;2023-12-20T15:15:00;6.70;99.90
9998;DHT22;5038;53.064;8.624;2023-12-20T15:17:32;6.80;99.90
9998;DHT22;5038;53.064;8.624;2023-12-20T15:20:00;6.80;99.90
9998;DHT22;5038;53.064;8.624;2023-12-20T15:22:29;6.80;99.90
9998;DHT22;5038;53.064;8.624;2023-12-20T15:25:02;6.80;99.90
9998;DHT22;5038;53.064;8.624;2023-12-20T15:27:33;6.80;99.90
9998;DHT22;5038;53.064;8.624;2023-12-20T15:30:02;6.80;99.90
9998;DHT22;5038;53.064;8.624;2023-12-20T15:32:31;6.80;99.90
9998;DHT22;5038;53.064;8.624;2023-12-20T15:35:00;6.80;99.90
9998;DHT22;5038;53.064;8.624;2023-12-20T15:37:29;6.80;99.90
9998;DHT22;5038;53.064;8.624;2023-12-20T15:39:58;6.80;99.90
9998;DHT22;5038;53.064;8.624;2023-12-20T15:42:29;6.80;99.90
9998;DHT22;5038;53.064;8.624;2023-12-20T15:44:59;6.80;99.90
9998;DHT22;5038;53.064;8.624;2023-12-20T15:47:27;6.80;99.90
9998;DHT22;5038;53.064;8.624;2023-12-20T15:49:55;6.90;99.90
9998;DHT22;5038;53.064;8.624;2023-12-20T15:52:24;6.90;99.90
9998;DHT22;5038;53.064;8.624;2023-12-20T15:54:53;6.80;99.90
9998;DHT22;5038;53.064;8.624;2023-12-20T15:57:21;6.80;99.90
9998;DHT22;5038;53.064;8.624;2023-12-20T15:59:52;6.80;99.90
9998;DHT22;5038;53.064;8.624;2023-12-20T16:02:21;6.80;99.90
9998;DHT22;5038;53.064;8.624;2023-12-20T16:04:49;6.80;99.90
9998;DHT22;5038;53.064;8.624;2023-12-20T16:07:17;6.80;99.90
9998;DHT22;5038;53.064;8.624;2023-12-20T16:09:46;6.80;99.90
9998;DHT22;5038;53.064;8.624;2023-12-20T16:12:14;6.80;99.90
9998;DHT22;5038;53.064;8.624;2023-12-20T16:14:42;6.80;99.90
9998;DHT22;5038;53.064;8.624;2023-12-20T16:17:12;6.70;99.90
9998;DHT22;5038;53.064;8.624;2023-12-20T16:19:40;6.70;99.90
9998;DHT22;5038;53.064;8.624;2023-12-20T16:22:08;6.70;99.90
9998;DHT22;5038;53.064;8.624;2023-12-20T16:24:37;6.70;99.90
9998;DHT22;5038;53.064;8.624;2023-12-20T16:27:05;6.70;99.90
9998;DHT22;5038;53.064;8.624;2023-12-20T16:29:33;6.70;99.90